sensor_id;sensor_type;location;lat;lon;timestamp;pressure;altitude;pressure_sealevel;temperature;humidity
34674;BME280;20879;55.668;37.858;2022-07-29T00:00:12;99762.25;;;17.59;79.35
34674;BME280;20879;55.668;37.858;2022-07-29T00:02:41;99770.31;;;17.54;79.23
34674;BME280;20879;55.668;37.858;2022-07-29T00:05:10;99759.19;;;17.49;79.67
34674;BME280;20879;55.668;37.858;2022-07-29T00:07:41;99777.91;;;17.60;79.30
34674;BME280;20879;55.668;37.858;2022-07-29T00:10:10;99761.97;;;17.65;78.55
34674;BME280;20879;55.668;37.858;2022-07-29T00:12:40;99774.16;;;17.66;78.84
34674;BME280;20879;55.668;37.858;2022-07-29T00:15:11;99781.34;;;17.61;78.94
34674;BME280;20879;55.668;37.858;2022-07-29T00:17:41;99774.38;;;17.61;78.99
34674;BME280;20879;55.668;37.858;2022-07-29T00:20:10;99782.34;;;17.58;78.71
34674;BME280;20879;55.668;37.858;2022-07-29T00:22:39;99788.72;;;17.53;79.17
34674;BME280;20879;55.668;37.858;2022-07-29T00:25:09;99783.47;;;17.53;79.05
34674;BME280;20879;55.668;37.858;2022-07-29T00:27:39;99772.94;;;17.54;78.66
34674;BME280;20879;55.668;37.858;2022-07-29T00:30:08;99792.50;;;17.45;79.00
34674;BME280;20879;55.668;37.858;2022-07-29T00:32:40;99795.00;;;17.49;78.16
34674;BME280;20879;55.668;37.858;2022-07-29T00:35:09;99786.31;;;17.46;78.33
34674;BME280;20879;55.668;37.858;2022-07-29T00:37:51;99791.69;;;17.43;78.11
34674;BME280;20879;55.668;37.858;2022-07-29T00:40:21;99806.69;;;17.40;78.50
34674;BME280;20879;55.668;37.858;2022-07-29T00:42:51;99805.72;;;17.42;78.33
34674;BME280;20879;55.668;37.858;2022-07-29T00:45:22;99801.59;;;17.37;78.30
34674;BME280;20879;55.668;37.858;2022-07-29T00:47:53;99806.69;;;17.40;77.74
34674;BME280;20879;55.668;37.858;2022-07-29T00:50:22;99798.84;;;17.40;77.61
34674;BME280;20879;55.668;37.858;2022-07-29T00:52:52;99795.50;;;17.36;77.13
34674;BME280;20879;55.668;37.858;2022-07-29T00:55:21;99802.66;;;17.10;77.48
34674;BME280;20879;55.668;37.858;2022-07-29T00:57:52;99812.97;;;16.93;78.81
34674;BME280;20879;55.668;37.858;2022-07-29T01:00:23;99809.88;;;16.82;78.79
34674;BME280;20879;55.668;37.858;2022-07-29T01:02:55;99820.84;;;16.69;79.04
34674;BME280;20879;55.668;37.858;2022-07-29T01:05:26;99790.78;;;16.57;78.84
34674;BME280;20879;55.668;37.858;2022-07-29T01:08:17;99824.91;;;16.53;79.20
34674;BME280;20879;55.668;37.858;2022-07-29T01:10:47;99808.47;;;16.27;78.56
34674;BME280;20879;55.668;37.858;2022-07-29T01:13:16;99827.66;;;16.26;78.74
34674;BME280;20879;55.668;37.858;2022-07-29T01:15:51;99827.06;;;16.19;79.21
34674;BME280;20879;55.668;37.858;2022-07-29T01:18:30;99832.59;;;16.10;79.89
34674;BME280;20879;55.668;37.858;2022-07-29T01:21:24;99817.78;;;16.11;79.72
34674;BME280;20879;55.668;37.858;2022-07-29T01:24:11;99843.56;;;15.96;80.89
34674;BME280;20879;55.668;37.858;2022-07-29T01:26:49;99828.41;;;15.81;81.18
34674;BME280;20879;55.668;37.858;2022-07-29T01:29:27;99839.00;;;15.76;81.38
34674;BME280;20879;55.668;37.858;2022-07-29T01:32:10;99835.72;;;15.69;81.58
34674;BME280;20879;55.668;37.858;2022-07-29T01:34:58;99826.41;;;15.62;81.38
34674;BME280;20879;55.668;37.858;2022-07-29T01:37:35;99843.16;;;15.57;81.74
34674;BME280;20879;55.668;37.858;2022-07-29T01:40:14;99838.09;;;15.50;82.07
34674;BME280;20879;55.668;37.858;2022-07-29T01:42:50;99835.56;;;15.49;81.76
34674;BME280;20879;55.668;37.858;2022-07-29T01:45:26;99836.38;;;15.51;81.85
34674;BME280;20879;55.668;37.858;2022-07-29T01:48:03;99834.88;;;15.44;82.01
34674;BME280;20879;55.668;37.858;2022-07-29T01:50:37;99840.09;;;15.44;81.77
34674;BME280;20879;55.668;37.858;2022-07-29T01:53:09;99837.69;;;15.37;81.63
34674;BME280;20879;55.668;37.858;2022-07-29T01:55:41;99842.84;;;15.39;81.81
34674;BME280;20879;55.668;37.858;2022-07-29T01:58:12;99833.25;;;15.40;81.61
34674;BME280;20879;55.668;37.858;2022-07-29T02:00:48;99834.16;;;15.38;81.66
34674;BME280;20879;55.668;37.858;2022-07-29T02:03:21;99825.53;;;15.36;81.71
34674;BME280;20879;55.668;37.858;2022-07-29T02:05:53;99832.56;;;15.34;81.71
34674;BME280;20879;55.668;37.858;2022-07-29T02:08:26;99832.38;;;15.41;81.26
34674;BME280;20879;55.668;37.858;2022-07-29T02:10:58;99844.63;;;15.37;81.19
34674;BME280;20879;55.668;37.858;2022-07-29T02:13:29;99845.25;;;15.45;81.31
34674;BME280;20879;55.668;37.858;2022-07-29T02:16:01;99846.09;;;15.46;81.04
34674;BME280;20879;55.668;37.858;2022-07-29T02:18:33;99851.31;;;15.46;81.34
34674;BME280;20879;55.668;37.858;2022-07-29T02:21:05;99848.13;;;15.37;81.75
34674;BME280;20879;55.668;37.858;2022-07-29T02:23:42;99849.69;;;15.42;81.62
34674;BME280;20879;55.668;37.858;2022-07-29T02:26:20;99839.03;;;15.49;81.21
34674;BME280;20879;55.668;37.858;2022-07-29T02:28:53;99836.75;;;15.38;80.92
34674;BME280;20879;55.668;37.858;2022-07-29T02:31:33;99844.94;;;15.54;80.97
34674;BME280;20879;55.668;37.858;2022-07-29T02:34:06;99848.53;;;15.50;81.29
34674;BME280;20879;55.668;37.858;2022-07-29T02:36:37;99845.03;;;15.51;81.23
34674;BME280;20879;55.668;37.858;2022-07-29T02:39:09;99856.13;;;15.58;80.65
34674;BME280;20879;55.668;37.858;2022-07-29T02:41:43;99856.88;;;15.62;80.62
34674;BME280;20879;55.668;37.858;2022-07-29T02:44:15;99850.72;;;15.64;80.61
34674;BME280;20879;55.668;37.858;2022-07-29T02:46:51;99869.59;;;15.71;80.66
34674;BME280;20879;55.668;37.858;2022-07-29T02:49:30;99838.44;;;15.66;80.21
34674;BME280;20879;55.668;37.858;2022-07-29T02:52:03;99860.81;;;15.73;80.63
34674;BME280;20879;55.668;37.858;2022-07-29T02:54:38;99854.66;;;15.76;80.26
34674;BME280;20879;55.668;37.858;2022-07-29T02:57:17;99832.38;;;15.66;80.52
34674;BME280;20879;55.668;37.858;2022-07-29T02:59:50;99856.34;;;15.79;79.96
34674;BME280;20879;55.668;37.858;2022-07-29T03:02:25;99838.44;;;15.66;80.41
34674;BME280;20879;55.668;37.858;2022-07-29T03:04:58;99858.75;;;15.85;80.14
34674;BME280;20879;55.668;37.858;2022-07-29T03:07:29;99855.69;;;15.97;79.53
34674;BME280;20879;55.668;37.858;2022-07-29T03:09:59;99862.84;;;15.92;80.00
34674;BME280;20879;55.668;37.858;2022-07-29T03:12:30;99876.75;;;15.93;79.84
34674;BME280;20879;55.668;37.858;2022-07-29T03:15:01;99860.84;;;15.99;79.86
34674;BME280;20879;55.668;37.858;2022-07-29T03:17:33;99862.44;;;16.03;79.76
34674;BME280;20879;55.668;37.858;2022-07-29T03:20:04;99862.28;;;16.07;79.10
34674;BME280;20879;55.668;37.858;2022-07-29T03:22:38;99862.88;;;16.16;78.89
34674;BME280;20879;55.668;37.858;2022-07-29T03:25:10;99858.44;;;16.18;78.60
34674;BME280;20879;55.668;37.858;2022-07-29T03:27:40;99858.53;;;16.15;78.24
34674;BME280;20879;55.668;37.858;2022-07-29T03:30:12;99863.34;;;16.27;77.81
34674;BME280;20879;55.668;37.858;2022-07-29T03:32:53;99865.66;;;16.35;77.99
34674;BME280;20879;55.668;37.858;2022-07-29T03:35:25;99855.28;;;16.33;78.16
34674;BME280;20879;55.668;37.858;2022-07-29T03:37:54;99859.50;;;16.37;77.71
34674;BME280;20879;55.668;37.858;2022-07-29T03:40:27;99853.38;;;16.38;77.50
34674;BME280;20879;55.668;37.858;2022-07-29T03:43:00;99856.63;;;16.43;77.06
34674;BME280;20879;55.668;37.858;2022-07-29T03:45:30;99863.88;;;16.60;76.97
34674;BME280;20879;55.668;37.858;2022-07-29T03:48:08;99857.31;;;16.72;75.90
34674;BME280;20879;55.668;37.858;2022-07-29T03:50:38;99866.16;;;16.92;74.84
34674;BME280;20879;55.668;37.858;2022-07-29T03:53:07;99866.47;;;17.06;74.39
34674;BME280;20879;55.668;37.858;2022-07-29T03:55:41;99869.41;;;17.21;74.16
34674;BME280;20879;55.668;37.858;2022-07-29T03:58:13;99867.25;;;17.30;74.01
34674;BME280;20879;55.668;37.858;2022-07-29T04:00:42;99853.88;;;17.38;73.27
34674;BME280;20879;55.668;37.858;2022-07-29T04:03:14;99882.78;;;17.35;72.63
34674;BME280;20879;55.668;37.858;2022-07-29T04:05:43;99868.13;;;17.31;72.95
34674;BME280;20879;55.668;37.858;2022-07-29T04:08:13;99870.28;;;17.42;72.57
34674;BME280;20879;55.668;37.858;2022-07-29T04:10:42;99871.53;;;17.54;72.42
34674;BME280;20879;55.668;37.858;2022-07-29T04:13:11;99862.59;;;17.59;71.75
34674;BME280;20879;55.668;37.858;2022-07-29T04:15:40;99866.31;;;17.54;71.89
34674;BME280;20879;55.668;37.858;2022-07-29T04:18:10;99874.69;;;17.62;71.60
34674;BME280;20879;55.668;37.858;2022-07-29T04:20:41;99867.44;;;17.69;69.85
34674;BME280;20879;55.668;37.858;2022-07-29T04:23:10;99863.97;;;17.68;69.69
34674;BME280;20879;55.668;37.858;2022-07-29T04:25:40;99862.53;;;17.61;69.34
34674;BME280;20879;55.668;37.858;2022-07-29T04:28:10;99873.88;;;17.61;69.60
34674;BME280;20879;55.668;37.858;2022-07-29T04:30:40;99882.97;;;17.73;68.46
34674;BME280;20879;55.668;37.858;2022-07-29T04:33:09;99871.56;;;17.74;68.38
34674;BME280;20879;55.668;37.858;2022-07-29T04:35:40;99879.88;;;17.84;68.16
34674;BME280;20879;55.668;37.858;2022-07-29T04:38:18;99861.09;;;17.95;67.38
34674;BME280;20879;55.668;37.858;2022-07-29T04:40:48;99878.03;;;18.08;67.10
34674;BME280;20879;55.668;37.858;2022-07-29T04:43:18;99873.78;;;18.25;66.19
34674;BME280;20879;55.668;37.858;2022-07-29T04:45:49;99882.81;;;18.38;65.85
34674;BME280;20879;55.668;37.858;2022-07-29T04:48:19;99860.94;;;18.39;65.38
34674;BME280;20879;55.668;37.858;2022-07-29T04:50:56;99887.66;;;18.27;65.12
34674;BME280;20879;55.668;37.858;2022-07-29T04:53:26;99876.41;;;18.25;64.97
34674;BME280;20879;55.668;37.858;2022-07-29T04:55:55;99885.41;;;18.19;65.26
34674;BME280;20879;55.668;37.858;2022-07-29T04:58:25;99875.75;;;18.20;65.15
34674;BME280;20879;55.668;37.858;2022-07-29T05:00:54;99890.56;;;18.21;65.77
34674;BME280;20879;55.668;37.858;2022-07-29T05:03:24;99891.94;;;18.29;65.65
34674;BME280;20879;55.668;37.858;2022-07-29T05:05:53;99864.59;;;18.35;64.71
34674;BME280;20879;55.668;37.858;2022-07-29T05:08:24;99889.09;;;18.34;64.25
34674;BME280;20879;55.668;37.858;2022-07-29T05:10:53;99868.84;;;18.38;63.79
34674;BME280;20879;55.668;37.858;2022-07-29T05:13:23;99882.59;;;18.43;63.45
34674;BME280;20879;55.668;37.858;2022-07-29T05:15:52;99871.81;;;18.49;63.33
34674;BME280;20879;55.668;37.858;2022-07-29T05:18:22;99870.00;;;18.51;62.30
34674;BME280;20879;55.668;37.858;2022-07-29T05:20:52;99878.19;;;18.62;62.01
34674;BME280;20879;55.668;37.858;2022-07-29T05:23:23;99873.84;;;18.63;61.78
34674;BME280;20879;55.668;37.858;2022-07-29T05:25:53;99882.31;;;18.68;60.53
34674;BME280;20879;55.668;37.858;2022-07-29T05:28:22;99899.19;;;18.62;59.51
34674;BME280;20879;55.668;37.858;2022-07-29T05:30:51;99862.06;;;18.52;60.08
34674;BME280;20879;55.668;37.858;2022-07-29T05:33:20;99889.84;;;18.76;60.53
34674;BME280;20879;55.668;37.858;2022-07-29T05:36:04;99893.56;;;18.91;60.40
34674;BME280;20879;55.668;37.858;2022-07-29T05:38:36;99875.56;;;19.02;60.69
34674;BME280;20879;55.668;37.858;2022-07-29T05:41:06;99885.44;;;19.14;59.52
34674;BME280;20879;55.668;37.858;2022-07-29T05:43:35;99873.84;;;19.01;58.90
34674;BME280;20879;55.668;37.858;2022-07-29T05:46:04;99876.13;;;18.90;58.73
34674;BME280;20879;55.668;37.858;2022-07-29T05:48:33;99881.78;;;18.80;59.51
34674;BME280;20879;55.668;37.858;2022-07-29T05:51:03;99869.41;;;18.82;58.83
34674;BME280;20879;55.668;37.858;2022-07-29T05:53:33;99881.34;;;18.90;59.08
34674;BME280;20879;55.668;37.858;2022-07-29T05:56:06;99885.69;;;18.91;59.08
34674;BME280;20879;55.668;37.858;2022-07-29T05:58:36;99886.88;;;18.83;59.68
34674;BME280;20879;55.668;37.858;2022-07-29T06:01:05;99891.09;;;18.88;60.07
34674;BME280;20879;55.668;37.858;2022-07-29T06:03:34;99866.13;;;18.98;59.76
34674;BME280;20879;55.668;37.858;2022-07-29T06:06:04;99884.19;;;19.04;59.80
34674;BME280;20879;55.668;37.858;2022-07-29T06:08:35;99889.78;;;19.15;59.24
34674;BME280;20879;55.668;37.858;2022-07-29T06:11:07;99885.06;;;19.22;59.67
34674;BME280;20879;55.668;37.858;2022-07-29T06:13:36;99875.91;;;19.48;58.53
34674;BME280;20879;55.668;37.858;2022-07-29T06:16:05;99884.34;;;19.55;58.41
34674;BME280;20879;55.668;37.858;2022-07-29T06:18:35;99864.94;;;19.58;57.92
34674;BME280;20879;55.668;37.858;2022-07-29T06:21:07;99871.53;;;19.49;57.93
34674;BME280;20879;55.668;37.858;2022-07-29T06:23:38;99870.75;;;19.47;58.36
34674;BME280;20879;55.668;37.858;2022-07-29T06:26:10;99878.16;;;19.56;58.04
34674;BME280;20879;55.668;37.858;2022-07-29T06:28:40;99879.25;;;19.69;59.06
34674;BME280;20879;55.668;37.858;2022-07-29T06:31:09;99865.97;;;19.72;58.70
34674;BME280;20879;55.668;37.858;2022-07-29T06:33:38;99882.88;;;19.67;58.95
34674;BME280;20879;55.668;37.858;2022-07-29T06:36:08;99862.56;;;19.70;59.12
34674;BME280;20879;55.668;37.858;2022-07-29T06:38:38;99872.72;;;19.78;58.33
34674;BME280;20879;55.668;37.858;2022-07-29T06:41:19;99856.41;;;19.89;57.99
34674;BME280;20879;55.668;37.858;2022-07-29T06:43:50;99847.09;;;19.99;57.75
34674;BME280;20879;55.668;37.858;2022-07-29T06:46:23;99881.66;;;20.09;57.38
34674;BME280;20879;55.668;37.858;2022-07-29T06:48:52;99828.91;;;20.12;56.98
34674;BME280;20879;55.668;37.858;2022-07-29T06:51:21;99880.03;;;20.06;56.71
34674;BME280;20879;55.668;37.858;2022-07-29T06:53:51;99856.66;;;20.18;55.85
34674;BME280;20879;55.668;37.858;2022-07-29T06:56:32;99860.91;;;20.36;56.31
34674;BME280;20879;55.668;37.858;2022-07-29T06:59:09;99851.28;;;20.53;55.73
34674;BME280;20879;55.668;37.858;2022-07-29T07:01:40;99886.03;;;20.42;55.97
34674;BME280;20879;55.668;37.858;2022-07-29T07:04:10;99878.56;;;20.34;56.22
34674;BME280;20879;55.668;37.858;2022-07-29T07:06:41;99858.81;;;20.43;55.80
34674;BME280;20879;55.668;37.858;2022-07-29T07:09:10;99834.47;;;20.39;55.98
34674;BME280;20879;55.668;37.858;2022-07-29T07:11:42;99871.13;;;20.42;56.41
34674;BME280;20879;55.668;37.858;2022-07-29T07:14:16;99873.22;;;20.69;56.64
34674;BME280;20879;55.668;37.858;2022-07-29T07:16:45;99888.59;;;20.77;57.49
34674;BME280;20879;55.668;37.858;2022-07-29T07:19:18;99857.44;;;20.69;55.83
34674;BME280;20879;55.668;37.858;2022-07-29T07:21:48;99879.03;;;20.58;55.85
34674;BME280;20879;55.668;37.858;2022-07-29T07:24:17;99885.03;;;20.45;55.23
34674;BME280;20879;55.668;37.858;2022-07-29T07:26:48;99885.47;;;20.37;55.14
34674;BME280;20879;55.668;37.858;2022-07-29T07:29:18;99897.25;;;20.46;55.01
34674;BME280;20879;55.668;37.858;2022-07-29T07:31:47;99889.47;;;20.44;55.03
34674;BME280;20879;55.668;37.858;2022-07-29T07:34:16;99896.69;;;20.56;54.71
34674;BME280;20879;55.668;37.858;2022-07-29T07:36:55;99868.38;;;20.77;54.35
34674;BME280;20879;55.668;37.858;2022-07-29T07:39:25;99872.34;;;21.01;53.48
34674;BME280;20879;55.668;37.858;2022-07-29T07:41:56;99873.13;;;21.19;52.59
34674;BME280;20879;55.668;37.858;2022-07-29T07:44:26;99868.41;;;21.40;52.18
34674;BME280;20879;55.668;37.858;2022-07-29T07:46:55;99890.56;;;21.52;51.30
34674;BME280;20879;55.668;37.858;2022-07-29T07:49:30;99863.31;;;21.37;50.81
34674;BME280;20879;55.668;37.858;2022-07-29T07:51:59;99881.94;;;21.34;50.29
34674;BME280;20879;55.668;37.858;2022-07-29T07:54:28;99896.66;;;21.22;51.09
34674;BME280;20879;55.668;37.858;2022-07-29T07:56:59;99891.88;;;21.12;50.38
34674;BME280;20879;55.668;37.858;2022-07-29T07:59:30;99900.38;;;21.02;50.11
34674;BME280;20879;55.668;37.858;2022-07-29T08:02:00;99877.97;;;21.10;49.94
34674;BME280;20879;55.668;37.858;2022-07-29T08:04:30;99861.22;;;21.27;49.09
34674;BME280;20879;55.668;37.858;2022-07-29T08:06:59;99855.72;;;21.46;48.47
34674;BME280;20879;55.668;37.858;2022-07-29T08:09:29;99890.56;;;21.36;48.20
34674;BME280;20879;55.668;37.858;2022-07-29T08:12:00;99904.94;;;21.30;48.58
34674;BME280;20879;55.668;37.858;2022-07-29T08:14:32;99891.50;;;21.35;48.60
34674;BME280;20879;55.668;37.858;2022-07-29T08:17:02;99889.38;;;21.57;47.31
34674;BME280;20879;55.668;37.858;2022-07-29T08:19:31;99888.81;;;21.67;46.22
34674;BME280;20879;55.668;37.858;2022-07-29T08:22:00;99878.53;;;21.92;46.03
34674;BME280;20879;55.668;37.858;2022-07-29T08:24:30;99891.97;;;22.32;45.73
34674;BME280;20879;55.668;37.858;2022-07-29T08:27:20;99882.53;;;22.57;44.05
34674;BME280;20879;55.668;37.858;2022-07-29T08:30:09;99873.59;;;22.45;44.36
34674;BME280;20879;55.668;37.858;2022-07-29T08:32:38;99876.81;;;22.50;44.38
34674;BME280;20879;55.668;37.858;2022-07-29T08:35:24;99886.41;;;22.51;44.13
34674;BME280;20879;55.668;37.858;2022-07-29T08:37:59;99891.75;;;22.64;44.04
34674;BME280;20879;55.668;37.858;2022-07-29T08:40:30;99885.84;;;23.02;43.39
34674;BME280;20879;55.668;37.858;2022-07-29T08:43:04;99884.59;;;23.23;42.96
34674;BME280;20879;55.668;37.858;2022-07-29T08:45:42;99887.53;;;23.18;43.61
34674;BME280;20879;55.668;37.858;2022-07-29T08:48:15;99878.09;;;23.14;43.02
34674;BME280;20879;55.668;37.858;2022-07-29T08:50:46;99867.75;;;23.11;38.88
34674;BME280;20879;55.668;37.858;2022-07-29T08:53:18;99867.13;;;23.20;40.12
34674;BME280;20879;55.668;37.858;2022-07-29T08:55:49;99863.88;;;23.29;40.16
34674;BME280;20879;55.668;37.858;2022-07-29T08:58:21;99865.94;;;23.51;40.18
34674;BME280;20879;55.668;37.858;2022-07-29T09:00:53;99880.53;;;23.44;40.94
34674;BME280;20879;55.668;37.858;2022-07-29T09:03:29;99881.78;;;23.38;41.58
34674;BME280;20879;55.668;37.858;2022-07-29T09:05:59;99863.88;;;23.29;41.19
34674;BME280;20879;55.668;37.858;2022-07-29T09:08:30;99877.78;;;23.46;40.61
34674;BME280;20879;55.668;37.858;2022-07-29T09:11:00;99860.06;;;23.61;41.64
34674;BME280;20879;55.668;37.858;2022-07-29T09:13:33;99887.84;;;22.99;41.30
34674;BME280;20879;55.668;37.858;2022-07-29T09:16:04;99869.91;;;22.62;41.19
34674;BME280;20879;55.668;37.858;2022-07-29T09:18:37;99874.63;;;22.14;42.67
34674;BME280;20879;55.668;37.858;2022-07-29T09:21:08;99864.59;;;21.76;43.05
34674;BME280;20879;55.668;37.858;2022-07-29T09:24:02;99872.91;;;21.98;43.18
34674;BME280;20879;55.668;37.858;2022-07-29T09:26:36;99871.97;;;22.14;42.71
34674;BME280;20879;55.668;37.858;2022-07-29T09:29:12;99872.47;;;22.35;42.19
34674;BME280;20879;55.668;37.858;2022-07-29T09:31:43;99879.72;;;22.46;42.49
34674;BME280;20879;55.668;37.858;2022-07-29T09:34:13;99877.78;;;22.77;42.76
34674;BME280;20879;55.668;37.858;2022-07-29T09:36:43;99876.03;;;22.63;42.60
34674;BME280;20879;55.668;37.858;2022-07-29T09:39:14;99876.63;;;22.81;42.20
34674;BME280;20879;55.668;37.858;2022-07-29T09:41:49;99883.00;;;23.06;41.92
34674;BME280;20879;55.668;37.858;2022-07-29T09:44:22;99882.41;;;23.42;40.98
34674;BME280;20879;55.668;37.858;2022-07-29T09:46:56;99891.22;;;23.55;40.89
34674;BME280;20879;55.668;37.858;2022-07-29T09:49:33;99885.81;;;23.44;40.69
34674;BME280;20879;55.668;37.858;2022-07-29T09:52:07;99887.59;;;23.44;40.87
34674;BME280;20879;55.668;37.858;2022-07-29T09:54:38;99885.94;;;23.55;40.83
34674;BME280;20879;55.668;37.858;2022-07-29T09:57:09;99883.84;;;23.61;40.83
34674;BME280;20879;55.668;37.858;2022-07-29T09:59:56;99870.06;;;23.55;41.53
34674;BME280;20879;55.668;37.858;2022-07-29T10:02:29;99876.75;;;23.21;42.26
34674;BME280;20879;55.668;37.858;2022-07-29T10:05:03;99880.66;;;23.01;42.59
34674;BME280;20879;55.668;37.858;2022-07-29T10:07:44;99888.47;;;23.02;42.74
34674;BME280;20879;55.668;37.858;2022-07-29T10:10:24;99891.84;;;23.19;42.22
34674;BME280;20879;55.668;37.858;2022-07-29T10:12:55;99872.78;;;23.41;41.18
34674;BME280;20879;55.668;37.858;2022-07-29T10:15:36;99879.94;;;23.79;41.83
34674;BME280;20879;55.668;37.858;2022-07-29T10:18:08;99888.16;;;24.15;41.46
34674;BME280;20879;55.668;37.858;2022-07-29T10:20:38;99894.88;;;24.45;40.89
34674;BME280;20879;55.668;37.858;2022-07-29T10:23:08;99887.69;;;24.47;40.12
34674;BME280;20879;55.668;37.858;2022-07-29T10:25:37;99876.59;;;24.41;40.09
34674;BME280;20879;55.668;37.858;2022-07-29T10:28:13;99882.19;;;24.50;39.85
34674;BME280;20879;55.668;37.858;2022-07-29T10:30:46;99876.78;;;24.64;40.01
34674;BME280;20879;55.668;37.858;2022-07-29T10:33:28;99876.91;;;24.50;39.96
34674;BME280;20879;55.668;37.858;2022-07-29T10:36:22;99876.78;;;24.64;40.15
34674;BME280;20879;55.668;37.858;2022-07-29T10:38:59;99884.00;;;24.62;39.59
34674;BME280;20879;55.668;37.858;2022-07-29T10:42:00;99845.97;;;24.63;39.31
34674;BME280;20879;55.668;37.858;2022-07-29T10:44:32;99877.19;;;24.71;39.96
34674;BME280;20879;55.668;37.858;2022-07-29T10:47:05;99867.25;;;24.99;39.46
34674;BME280;20879;55.668;37.858;2022-07-29T10:49:36;99866.78;;;24.81;39.38
34674;BME280;20879;55.668;37.858;2022-07-29T10:52:08;99886.16;;;24.81;38.89
34674;BME280;20879;55.668;37.858;2022-07-29T10:54:40;99882.22;;;24.87;38.95
34674;BME280;20879;55.668;37.858;2022-07-29T10:57:20;99883.72;;;24.91;39.15
34674;BME280;20879;55.668;37.858;2022-07-29T11:00:27;99882.56;;;24.82;38.83
34674;BME280;20879;55.668;37.858;2022-07-29T11:02:59;99886.41;;;24.65;39.31
34674;BME280;20879;55.668;37.858;2022-07-29T11:05:53;99876.13;;;24.73;40.06
34674;BME280;20879;55.668;37.858;2022-07-29T11:08:26;99891.53;;;24.42;39.91
34674;BME280;20879;55.668;37.858;2022-07-29T11:14:17;99885.03;;;24.47;39.98
34674;BME280;20879;55.668;37.858;2022-07-29T11:17:01;99881.97;;;24.53;39.06
34674;BME280;20879;55.668;37.858;2022-07-29T11:19:37;99883.66;;;24.54;39.08
34674;BME280;20879;55.668;37.858;2022-07-29T11:22:33;99883.47;;;24.31;40.71
34674;BME280;20879;55.668;37.858;2022-07-29T11:25:13;99887.72;;;24.21;40.17
34674;BME280;20879;55.668;37.858;2022-07-29T11:27:44;99877.13;;;24.21;38.69
34674;BME280;20879;55.668;37.858;2022-07-29T11:30:14;99885.28;;;24.31;38.89
34674;BME280;20879;55.668;37.858;2022-07-29T11:32:44;99860.09;;;24.38;37.54
34674;BME280;20879;55.668;37.858;2022-07-29T11:35:18;99889.72;;;24.17;38.42
34674;BME280;20879;55.668;37.858;2022-07-29T11:38:24;99885.47;;;24.28;38.80
34674;BME280;20879;55.668;37.858;2022-07-29T11:41:22;99887.28;;;24.27;38.96
34674;BME280;20879;55.668;37.858;2022-07-29T11:43:54;99898.69;;;24.40;38.41
34674;BME280;20879;55.668;37.858;2022-07-29T11:46:46;99893.84;;;24.60;38.60
34674;BME280;20879;55.668;37.858;2022-07-29T11:49:35;99884.44;;;24.93;37.93
34674;BME280;20879;55.668;37.858;2022-07-29T11:52:13;99843.34;;;25.11;37.46
34674;BME280;20879;55.668;37.858;2022-07-29T11:54:42;99874.72;;;25.05;37.73
34674;BME280;20879;55.668;37.858;2022-07-29T11:57:28;99885.03;;;24.72;37.38
34674;BME280;20879;55.668;37.858;2022-07-29T12:00:05;99885.78;;;24.49;35.97
34674;BME280;20879;55.668;37.858;2022-07-29T12:02:41;99857.13;;;24.17;37.57
34674;BME280;20879;55.668;37.858;2022-07-29T12:05:41;99889.53;;;24.07;38.42
34674;BME280;20879;55.668;37.858;2022-07-29T12:08:22;99896.09;;;24.15;38.78
34674;BME280;20879;55.668;37.858;2022-07-29T12:10:52;99883.03;;;24.24;38.18
34674;BME280;20879;55.668;37.858;2022-07-29T12:13:23;99885.13;;;24.58;38.45
34674;BME280;20879;55.668;37.858;2022-07-29T12:16:04;99886.56;;;24.88;37.43
34674;BME280;20879;55.668;37.858;2022-07-29T12:18:34;99873.53;;;24.85;37.26
34674;BME280;20879;55.668;37.858;2022-07-29T12:21:03;99856.63;;;24.74;37.69
34674;BME280;20879;55.668;37.858;2022-07-29T12:23:34;99852.06;;;24.76;37.06
34674;BME280;20879;55.668;37.858;2022-07-29T12:26:04;99871.41;;;24.90;37.21
34674;BME280;20879;55.668;37.858;2022-07-29T12:28:37;99857.72;;;25.20;36.68
34674;BME280;20879;55.668;37.858;2022-07-29T12:31:13;99879.16;;;25.17;35.77
34674;BME280;20879;55.668;37.858;2022-07-29T12:34:02;99845.03;;;24.88;36.71
34674;BME280;20879;55.668;37.858;2022-07-29T12:36:32;99868.09;;;25.23;36.84
34674;BME280;20879;55.668;37.858;2022-07-29T12:39:04;99877.69;;;25.37;36.40
34674;BME280;20879;55.668;37.858;2022-07-29T12:41:32;99869.78;;;25.49;36.79
34674;BME280;20879;55.668;37.858;2022-07-29T12:44:02;99876.81;;;25.12;37.00
34674;BME280;20879;55.668;37.858;2022-07-29T12:46:31;99868.53;;;25.41;36.84
34674;BME280;20879;55.668;37.858;2022-07-29T12:49:01;99869.16;;;25.80;35.99
34674;BME280;20879;55.668;37.858;2022-07-29T12:57:47;99872.09;;;26.57;34.72
34674;BME280;20879;55.668;37.858;2022-07-29T13:00:21;99878.63;;;26.52;34.57
34674;BME280;20879;55.668;37.858;2022-07-29T13:02:55;99875.59;;;26.01;35.30
34674;BME280;20879;55.668;37.858;2022-07-29T13:05:38;99858.63;;;25.68;35.77
34674;BME280;20879;55.668;37.858;2022-07-29T13:08:19;99872.50;;;25.11;37.34
34674;BME280;20879;55.668;37.858;2022-07-29T13:10:52;99879.25;;;24.91;37.31
34674;BME280;20879;55.668;37.858;2022-07-29T13:13:23;99880.94;;;24.92;37.22
34674;BME280;20879;55.668;37.858;2022-07-29T13:16:05;99876.38;;;25.19;37.06
34674;BME280;20879;55.668;37.858;2022-07-29T13:18:37;99875.63;;;25.17;37.49
34674;BME280;20879;55.668;37.858;2022-07-29T13:21:11;99852.53;;;24.94;37.80
34674;BME280;20879;55.668;37.858;2022-07-29T13:23:42;99869.72;;;24.89;38.34
34674;BME280;20879;55.668;37.858;2022-07-29T13:26:12;99875.34;;;24.84;37.95
34674;BME280;20879;55.668;37.858;2022-07-29T13:28:44;99871.34;;;24.78;38.16
34674;BME280;20879;55.668;37.858;2022-07-29T13:31:14;99878.66;;;24.75;38.15